»·PEaware :: N219SW KBFL-KVBG

N219SW :: KBFL-KVBG

FLIGHT INFORMATION

Flight Status: Arrived
Operator: Privately registered:
United States
More flights under this callsign
Pilot: Scott W. (15065)
Aircraft: CESSNA 208 CARAVAN
(C208)
More flights by this aircraft type
Origin: KBFL Meadows
United States
Destination: KVBG Vandenberg AFB
United States
More flights between these airports :: More routes between these airports
Route: +MARIC4 MARIC FLW GLJ KVBG
File this flight plan on PilotEdge
Remarks:
Altitude:
(Current/Filed)
6,000ft
Speed:
(Current/Filed)
150kts
Departed: 19-Jun-17 04:05 PM
Arrived: 19-Jun-17 04:47 PM
Distance/Time
Traveled:
85nm/0:41
Distance/Time
To Go:
Arrived

Flight Plot

Page will automatically refresh every two minutes.

Flight plan parsing failed; only flown route is shown


Map Options




Map Legend


Flown Route
Filed Route
Departure Airport
Arrival Airport
Navaid (VOR, NDB)
Fix

Horizontal Profiles

Position Reports

Time Latitude Longitude Heading Altitude Ground
Speed
19-Jun-17 15:45 35.429387 -119.046098 226 511ft 0kts
19-Jun-17 15:46 35.429387 -119.046098 226 511ft 0kts
19-Jun-17 15:47 35.429387 -119.046098 226 511ft 0kts
19-Jun-17 15:48 35.429387 -119.046098 226 511ft 0kts
19-Jun-17 15:49 35.429387 -119.046098 226 511ft 0kts
19-Jun-17 15:50 35.429387 -119.046098 226 511ft 0kts
19-Jun-17 15:51 35.429387 -119.046098 226 511ft 0kts
19-Jun-17 15:52 35.429387 -119.046098 226 511ft 0kts
19-Jun-17 15:53 35.429387 -119.046098 226 511ft 0kts
19-Jun-17 15:54 35.429387 -119.046098 226 511ft 0kts
19-Jun-17 15:55 35.429387 -119.046098 226 511ft 0kts
19-Jun-17 15:56 35.429387 -119.046098 226 511ft 0kts
19-Jun-17 15:57 35.429387 -119.046098 226 511ft 0kts
19-Jun-17 15:58 35.429387 -119.046098 226 511ft 0kts
19-Jun-17 15:59 35.429387 -119.046098 226 511ft 0kts
19-Jun-17 16:00 35.429387 -119.046098 226 511ft 0kts
19-Jun-17 16:01 35.429387 -119.046098 226 511ft 0kts
19-Jun-17 16:02 35.429184 -119.046386 227 511ft 2kts
19-Jun-17 16:03 35.426925 -119.045617 139 511ft 20kts
19-Jun-17 16:05 35.425324 -119.044609 285 511ft 0kts
19-Jun-17 16:06 35.425324 -119.044609 285 511ft 0kts
19-Jun-17 16:07 35.425324 -119.044609 285 511ft 0kts
19-Jun-17 16:08 35.426521 -119.047313 314 511ft 44kts
19-Jun-17 16:09 35.445280 -119.069428 315 916ft 116kts
19-Jun-17 16:10 35.447415 -119.109084 254 1538ft 138kts
19-Jun-17 16:11 35.425938 -119.146571 206 2128ft 150kts
19-Jun-17 16:12 35.388109 -119.167470 210 2722ft 145kts
19-Jun-17 16:13 35.353425 -119.189026 212 3306ft 135kts
19-Jun-17 16:14 35.321600 -119.209878 213 3883ft 129kts
19-Jun-17 16:15 35.290726 -119.230504 213 4470ft 124kts
19-Jun-17 16:16 35.260791 -119.250656 213 5058ft 121kts
19-Jun-17 16:17 35.231760 -119.270258 212 5645ft 117kts
19-Jun-17 16:18 35.213306 -119.298175 257 6243ft 112kts
19-Jun-17 16:19 35.206739 -119.335260 253 6824ft 110kts
19-Jun-17 16:20 35.199443 -119.371417 251 7402ft 109kts
19-Jun-17 16:21 35.191792 -119.407870 250 7900ft 112kts
19-Jun-17 16:22 35.183006 -119.448758 250 8011ft 136kts
19-Jun-17 16:23 35.173053 -119.495457 251 8008ft 145kts
19-Jun-17 16:24 35.162800 -119.543613 251 8013ft 147kts
19-Jun-17 16:25 35.152452 -119.592159 251 8033ft 150kts
19-Jun-17 16:26 35.141461 -119.643659 251 8052ft 162kts
19-Jun-17 16:27 35.130174 -119.696323 250 8071ft 164kts
19-Jun-17 16:28 35.118496 -119.750648 250 8092ft 166kts
19-Jun-17 16:29 35.106730 -119.805172 250 8101ft 167kts
19-Jun-17 16:30 35.094861 -119.860078 250 8103ft 167kts
19-Jun-17 16:31 35.083190 -119.915076 250 8104ft 167kts
19-Jun-17 16:32 35.071525 -119.970043 250 8104ft 167kts
19-Jun-17 16:33 35.059830 -120.025021 250 8105ft 167kts
19-Jun-17 16:34 35.048146 -120.079816 250 8110ft 167kts
19-Jun-17 16:35 35.036184 -120.135058 250 8016ft 169kts
19-Jun-17 16:36 35.011164 -120.181970 228 7733ft 173kts
19-Jun-17 16:37 34.979914 -120.228119 229 7224ft 177kts
19-Jun-17 16:38 34.950043 -120.272108 229 6516ft 165kts
19-Jun-17 16:39 34.920831 -120.315217 230 5803ft 165kts
19-Jun-17 16:40 34.893737 -120.354771 232 4949ft 157kts
19-Jun-17 16:41 34.866257 -120.395451 233 4066ft 159kts
19-Jun-17 16:42 34.838845 -120.435892 232 3177ft 153kts
19-Jun-17 16:43 34.814440 -120.471640 233 3034ft 128kts
19-Jun-17 16:44 34.791237 -120.505790 233 2966ft 135kts
19-Jun-17 16:45 34.764090 -120.538661 191 2696ft 153kts
19-Jun-17 16:46 34.724236 -120.516842 147 2336ft 164kts
19-Jun-17 16:47 34.701226 -120.530925 263 1939ft 99kts
19-Jun-17 16:48 34.714216 -120.557469 312 643ft 78kts
19-Jun-17 16:49 34.727210 -120.572574 317 374ft 49kts
19-Jun-17 16:50 34.732780 -120.574116 47 374ft 13kts
19-Jun-17 16:51 34.734533 -120.570916 89 374ft 0kts

Navigation Log

Ident Type
Flight plan parsing failed, navigation log unavailable